Time;durP1;ratioP1;P1;durP2;ratioP2;P2;SDS_P1;SDS_P2;PMS_P1;PMS_P2;Temp;Humidity;BMP_temperature;BMP_pressure;BME280_temperature;BME280_humidity;BME280_pressure;Samples;Min_cycle;Max_cycle;Signal;HPM_P1;HPM_P2
2021/03/12 00:00:27;;;;;;;1999.90;999.90;;;17.80;99.20;;;;;;5093131;28;20163;-43
2021/03/12 00:02:54;;;;;;;1999.90;999.90;;;17.80;99.00;;;;;;5093073;28;20160;-43
2021/03/12 00:05:21;;;;;;;1999.90;999.90;;;17.80;98.90;;;;;;5093206;28;20171;-43
2021/03/12 00:07:48;;;;;;;1999.90;999.90;;;17.80;98.90;;;;;;5093094;28;20168;-43
2021/03/12 00:10:20;;;;;;;1999.90;999.90;;;17.80;98.80;;;;;;5092886;28;20192;-43
2021/03/12 00:12:47;;;;;;;1999.90;999.90;;;17.70;98.90;;;;;;5092896;28;20171;-43
2021/03/12 00:15:17;;;;;;;1999.90;999.90;;;17.70;98.90;;;;;;5092915;28;20174;-44
2021/03/12 00:17:45;;;;;;;1999.90;999.90;;;17.70;99.00;;;;;;5092993;28;20163;-43
2021/03/12 00:20:18;;;;;;;1999.90;999.90;;;17.70;99.10;;;;;;5092662;28;20294;-43
2021/03/12 00:22:46;;;;;;;1999.90;999.90;;;17.80;99.10;;;;;;5092814;28;20679;-43
2021/03/12 00:25:16;;;;;;;1999.90;999.90;;;17.90;99.00;;;;;;5092821;28;20633;-43
2021/03/12 00:27:43;;;;;;;1999.90;999.90;;;17.90;98.90;;;;;;5092709;28;20254;-43
2021/03/12 00:30:11;;;;;;;1999.90;999.90;;;18.00;99.30;;;;;;5092669;28;20253;-44
2021/03/12 00:32:40;;;;;;;1999.90;999.90;;;18.00;99.10;;;;;;5092598;28;20172;-44
2021/03/12 00:35:08;;;;;;;1999.90;999.90;;;17.90;99.20;;;;;;5092802;28;20168;-43
2021/03/12 00:37:36;;;;;;;1999.90;999.90;;;17.90;99.50;;;;;;5092642;28;20171;-43
2021/03/12 00:40:12;;;;;;;1999.90;999.90;;;17.90;99.90;;;;;;5092609;28;20160;-42
2021/03/12 00:42:39;;;;;;;1999.90;999.90;;;17.80;99.90;;;;;;5092596;28;20160;-45
2021/03/12 00:45:10;;;;;;;1999.90;999.90;;;17.70;99.90;;;;;;5092452;28;20542;-43
2021/03/12 00:47:37;;;;;;;1999.90;999.90;;;17.70;99.90;;;;;;5092444;28;20206;-43
2021/03/12 00:50:05;;;;;;;1999.90;999.90;;;17.60;99.90;;;;;;5092430;28;20231;-43
2021/03/12 00:52:32;;;;;;;1999.90;999.90;;;17.60;99.90;;;;;;5092535;28;20189;-43
2021/03/12 00:54:59;;;;;;;1999.90;999.90;;;17.60;99.90;;;;;;5092508;28;20564;-43
2021/03/12 00:57:26;;;;;;;1999.90;999.90;;;17.60;99.90;;;;;;5096454;28;20164;-43
2021/03/12 00:59:53;;;;;;;1999.90;999.90;;;17.60;99.90;;;;;;5096483;28;20164;-43
2021/03/12 01:02:19;;;;;;;1999.90;999.90;;;17.50;99.90;;;;;;5096196;28;20172;-43
2021/03/12 01:04:46;;;;;;;1999.90;999.90;;;17.60;99.90;;;;;;5096292;28;20247;-42
2021/03/12 01:07:13;;;;;;;1999.90;999.90;;;17.50;99.90;;;;;;5096067;28;20168;-42
2021/03/12 01:09:40;;;;;;;1999.90;999.90;;;17.60;99.90;;;;;;5096024;28;20227;-43
2021/03/12 01:12:07;;;;;;;1999.90;999.90;;;17.50;99.90;;;;;;5095886;28;20221;-43
2021/03/12 01:14:34;;;;;;;1999.90;999.90;;;17.60;99.90;;;;;;5096021;28;20194;-43
2021/03/12 01:17:01;;;;;;;1999.90;999.90;;;17.60;99.90;;;;;;5095969;28;20608;-43
2021/03/12 01:19:28;;;;;;;1999.90;999.90;;;17.60;99.90;;;;;;5095786;28;20211;-44
2021/03/12 01:21:55;;;;;;;1999.90;999.90;;;17.60;99.60;;;;;;5095989;28;20175;-43
2021/03/12 01:24:21;;;;;;;1999.90;999.90;;;17.50;99.70;;;;;;5095804;28;20630;-43
2021/03/12 01:26:48;;;;;;;1999.90;999.90;;;17.40;99.90;;;;;;5095824;28;20216;-47
2021/03/12 01:29:16;;;;;;;1999.90;999.90;;;17.40;99.90;;;;;;5095705;28;20188;-43
2021/03/12 01:31:42;;;;;;;1999.90;999.90;;;17.50;99.90;;;;;;5095728;28;20645;-43
2021/03/12 01:34:09;;;;;;;1999.90;999.90;;;17.50;99.90;;;;;;5095746;28;20637;-44
2021/03/12 01:36:36;;;;;;;1999.90;999.90;;;17.50;99.90;;;;;;5095630;28;20191;-43
2021/03/12 01:39:04;;;;;;;1999.90;999.90;;;17.40;99.90;;;;;;5095523;28;20229;-43
2021/03/12 01:41:31;;;;;;;1999.90;999.90;;;17.40;99.90;;;;;;5095555;28;20170;-43
2021/03/12 01:43:58;;;;;;;1999.90;999.90;;;17.40;99.90;;;;;;5095554;28;20203;-42
2021/03/12 01:46:25;;;;;;;1999.90;999.90;;;17.40;99.90;;;;;;5095513;28;20164;-45
2021/03/12 01:48:51;;;;;;;1999.90;999.90;;;17.40;99.90;;;;;;5095423;28;20195;-43
2021/03/12 01:51:18;;;;;;;1999.90;999.90;;;17.40;99.90;;;;;;5095482;28;20160;-43
2021/03/12 01:53:45;;;;;;;1999.90;999.90;;;17.40;99.90;;;;;;5095400;28;20167;-44
2021/03/12 01:56:12;;;;;;;1999.90;999.90;;;17.40;99.90;;;;;;5095325;28;20691;-43
2021/03/12 01:58:39;;;;;;;1999.90;999.90;;;17.40;99.90;;;;;;5095309;28;20675;-43
2021/03/12 02:14:05;;;;;;;1999.90;999.90;;;17.40;99.90;;;;;;5131320;27;20576;-43
2021/03/12 02:16:58;;;;;;;1999.90;999.90;;;17.40;99.90;;;;;;5131026;28;20192;-45
2021/03/12 02:20:02;;;;;;;1999.90;999.90;;;17.40;99.90;;;;;;5127146;28;20182;-42
2021/03/12 02:22:30;;;;;;;1999.90;999.90;;;17.40;99.90;;;;;;5131038;28;20198;-43
2021/03/12 02:25:12;;;;;;;1999.90;999.90;;;17.30;99.90;;;;;;5131074;28;20246;-42
2021/03/12 02:27:40;;;;;;;1999.90;999.90;;;17.30;99.90;;;;;;5131025;28;20162;-43
2021/03/12 02:30:08;;;;;;;1999.90;999.90;;;17.20;99.90;;;;;;5130902;28;20166;-42
2021/03/12 02:32:44;;;;;;;1999.90;999.90;;;17.20;99.90;;;;;;5130797;28;20237;-43
2021/03/12 02:35:16;;;;;;;1999.90;999.90;;;17.10;99.90;;;;;;5130763;28;20174;-42
2021/03/12 02:37:45;;;;;;;1999.90;999.90;;;17.10;99.90;;;;;;5130721;28;20159;-43
2021/03/12 02:40:13;;;;;;;1999.90;999.90;;;17.00;99.90;;;;;;5130712;28;20167;-43
2021/03/12 02:42:41;;;;;;;1999.90;999.90;;;17.00;99.90;;;;;;5130574;28;20194;-43
2021/03/12 02:45:11;;;;;;;1999.90;999.90;;;17.00;99.90;;;;;;5130560;28;20216;-44
2021/03/12 02:47:39;;;;;;;1999.90;999.90;;;16.90;99.90;;;;;;5130464;28;20178;-43
2021/03/12 02:50:08;;;;;;;1999.90;999.90;;;16.90;99.90;;;;;;5130488;28;20163;-43
2021/03/12 02:52:36;;;;;;;1999.90;999.90;;;16.90;99.90;;;;;;5130475;28;20166;-42
2021/03/12 02:55:05;;;;;;;1999.90;999.90;;;16.80;99.90;;;;;;5130369;28;20170;-42
2021/03/12 02:57:32;;;;;;;1999.90;999.90;;;16.80;99.90;;;;;;5130387;28;20166;-43
2021/03/12 02:59:59;;;;;;;1999.90;999.90;;;16.90;99.90;;;;;;5130411;28;20167;-43
2021/03/12 03:02:28;;;;;;;1999.90;999.90;;;16.80;99.90;;;;;;5130002;28;20561;-43
2021/03/12 03:05:00;;;;;;;1999.90;999.90;;;16.90;99.90;;;;;;5130143;28;20197;-43
2021/03/12 03:07:28;;;;;;;1999.90;999.90;;;16.80;99.90;;;;;;5130066;28;20208;-42
2021/03/12 03:09:56;;;;;;;1999.90;999.90;;;16.80;99.90;;;;;;5130051;28;20636;-42
2021/03/12 03:12:25;;;;;;;1999.90;999.90;;;16.80;99.90;;;;;;5129540;28;20223;-42
2021/03/12 03:14:59;;;;;;;1999.90;999.90;;;16.80;99.90;;;;;;5115771;28;20690;-42
2021/03/12 03:17:29;;;;;;;1999.90;999.90;;;16.80;99.90;;;;;;5116196;28;20182;-43
2021/03/12 03:19:56;;;;;;;1999.90;999.90;;;16.90;99.90;;;;;;5116180;28;20167;-43
2021/03/12 03:22:23;;;;;;;1999.90;999.90;;;16.80;99.90;;;;;;5115990;28;20204;-42
2021/03/12 03:24:50;;;;;;;1999.90;999.90;;;16.70;99.90;;;;;;5116084;28;20171;-42
2021/03/12 03:27:17;;;;;;;1999.90;999.90;;;16.70;99.90;;;;;;5116139;28;20174;-42
2021/03/12 03:29:44;;;;;;;1999.90;999.90;;;16.60;99.90;;;;;;5115997;28;20665;-43
2021/03/12 03:32:13;;;;;;;1999.90;999.90;;;16.70;99.90;;;;;;5116046;28;20163;-44
2021/03/12 03:34:41;;;;;;;1999.90;999.90;;;16.70;99.90;;;;;;5097618;28;20539;-44
2021/03/12 03:37:08;;;;;;;1999.90;999.90;;;16.60;99.90;;;;;;5115910;28;20167;-43
2021/03/12 03:39:35;;;;;;;1999.90;999.90;;;16.60;99.90;;;;;;5115993;28;20170;-42
2021/03/12 03:42:04;;;;;;;1999.90;999.90;;;16.70;99.90;;;;;;5115737;28;20614;-45
2021/03/12 03:44:36;;;;;;;1999.90;999.90;;;16.80;99.90;;;;;;5115923;28;20170;-42
2021/03/12 03:47:05;;;;;;;1999.90;999.90;;;16.80;99.90;;;;;;5115847;28;20156;-42
2021/03/12 03:49:35;;;;;;;1999.90;999.90;;;16.80;99.90;;;;;;5115815;28;20168;-42
2021/03/12 03:52:07;;;;;;;1999.90;999.90;;;16.90;99.90;;;;;;5116018;28;20160;-42
2021/03/12 03:54:37;;;;;;;1999.90;999.90;;;16.80;99.90;;;;;;5115757;28;20155;-42
2021/03/12 03:57:05;;;;;;;1999.90;999.90;;;16.90;99.90;;;;;;5115649;28;20263;-42
2021/03/12 03:59:33;;;;;;;1999.90;999.90;;;16.90;99.90;;;;;;5115838;28;20643;-42
2021/03/12 04:02:01;;;;;;;1999.90;999.90;;;16.90;99.90;;;;;;5115167;28;20613;-42
2021/03/12 04:04:28;;;;;;;1999.90;999.90;;;16.90;99.90;;;;;;5115358;28;20664;-43
2021/03/12 04:06:56;;;;;;;1999.90;999.90;;;17.00;99.90;;;;;;5115322;28;20527;-42
2021/03/12 04:09:23;;;;;;;1999.90;999.90;;;17.00;99.90;;;;;;5115300;28;20335;-43
2021/03/12 04:11:51;;;;;;;1999.90;999.90;;;17.00;99.90;;;;;;5115069;28;20284;-42
2021/03/12 04:26:11;;;;;;;1999.90;999.90;;;16.90;99.90;;;;;;5110822;27;20534;-43
2021/03/12 04:28:38;;;;;;;1999.90;999.90;;;17.00;99.90;;;;;;5110657;28;20163;-43
2021/03/12 04:31:06;;;;;;;1999.90;999.90;;;17.10;99.90;;;;;;5110519;28;20178;-44
2021/03/12 04:33:33;;;;;;;1999.90;999.90;;;17.00;99.90;;;;;;5110446;28;20244;-43
2021/03/12 04:36:00;;;;;;;1999.90;999.90;;;17.00;99.90;;;;;;5110421;28;20171;-43
2021/03/12 04:38:27;;;;;;;1999.90;999.90;;;16.90;99.90;;;;;;5110505;28;20259;-43
2021/03/12 04:40:54;;;;;;;1999.90;999.90;;;16.80;99.90;;;;;;5110467;28;20171;-44
2021/03/12 04:43:22;;;;;;;1999.90;999.90;;;16.80;99.90;;;;;;5110438;28;20569;-43
2021/03/12 04:45:49;;;;;;;1999.90;999.90;;;16.70;99.90;;;;;;5091991;28;20181;-43
2021/03/12 04:48:17;;;;;;;1999.90;999.90;;;16.70;99.90;;;;;;5110243;28;20174;-43
2021/03/12 04:50:45;;;;;;;1999.90;999.90;;;16.70;99.90;;;;;;5110105;28;20205;-45
2021/03/12 04:53:12;;;;;;;1999.90;999.90;;;16.70;99.90;;;;;;5110111;28;20163;-45
2021/03/12 04:55:39;;;;;;;1999.90;999.90;;;16.60;99.90;;;;;;5110094;28;20300;-42
2021/03/12 04:58:06;;;;;;;1999.90;999.90;;;16.60;99.90;;;;;;5110106;28;20163;-43
2021/03/12 05:00:33;;;;;;;1999.90;999.90;;;16.60;99.90;;;;;;5110026;28;20168;-43
2021/03/12 05:03:00;;;;;;;1999.90;999.90;;;16.60;99.90;;;;;;5109976;28;20506;-42
2021/03/12 05:05:29;;;;;;;1999.90;999.90;;;16.60;99.90;;;;;;5109916;28;20171;-42
2021/03/12 05:07:56;;;;;;;1999.90;999.90;;;16.50;99.90;;;;;;5110044;28;20297;-43
2021/03/12 05:10:23;;;;;;;1999.90;999.90;;;16.50;99.90;;;;;;5109933;28;20167;-44
2021/03/12 05:12:50;;;;;;;1999.90;999.90;;;16.60;99.90;;;;;;5109753;28;20174;-43
2021/03/12 05:15:16;;;;;;;1999.90;999.90;;;16.70;99.90;;;;;;5109647;28;20202;-43
2021/03/12 05:17:43;;;;;;;1999.90;999.90;;;16.80;99.90;;;;;;5109687;28;20171;-48
2021/03/12 05:20:10;;;;;;;1999.90;999.90;;;16.80;99.90;;;;;;5109680;28;20250;-43
2021/03/12 05:22:37;;;;;;;1999.90;999.90;;;16.80;99.90;;;;;;5109585;28;20695;-43
2021/03/12 05:25:04;;;;;;;1999.90;999.90;;;16.90;99.90;;;;;;5107005;28;20207;-43
2021/03/12 05:27:31;;;;;;;1999.90;999.90;;;16.90;99.90;;;;;;5095554;28;20213;-43
2021/03/12 05:29:58;;;;;;;1999.90;999.90;;;17.00;99.90;;;;;;5095793;28;20247;-45
2021/03/12 05:32:25;;;;;;;1999.90;999.90;;;17.20;99.90;;;;;;5095923;28;20168;-45
2021/03/12 05:34:51;;;;;;;1999.90;999.90;;;17.00;99.90;;;;;;5095619;28;20249;-43
2021/03/12 05:37:18;;;;;;;1999.90;999.90;;;17.10;99.90;;;;;;5095713;28;20170;-43
2021/03/12 05:39:45;;;;;;;1999.90;999.90;;;17.20;99.90;;;;;;5095669;28;20175;-45
2021/03/12 05:42:12;;;;;;;1999.90;999.90;;;17.30;99.90;;;;;;5095532;28;20159;-45
2021/03/12 05:44:39;;;;;;;1999.90;999.90;;;17.30;99.90;;;;;;5095424;28;20168;-43
2021/03/12 05:47:07;;;;;;;1999.90;999.90;;;17.40;99.90;;;;;;5095280;28;20171;-44
2021/03/12 05:49:37;;;;;;;1999.90;999.90;;;17.40;99.90;;;;;;5095336;28;20626;-43
2021/03/12 05:52:04;;;;;;;1999.90;999.90;;;17.50;99.90;;;;;;5095195;28;20191;-43
2021/03/12 05:54:31;;;;;;;1999.90;999.90;;;17.60;99.90;;;;;;5095140;28;20235;-43
2021/03/12 05:56:58;;;;;;;1999.90;999.90;;;17.70;99.90;;;;;;5095225;28;20187;-43
2021/03/12 05:59:26;;;;;;;1999.90;999.90;;;17.70;99.90;;;;;;5094878;28;20168;-57
2021/03/12 06:01:53;;;;;;;1999.90;999.90;;;17.70;99.90;;;;;;5094656;28;20176;-45
2021/03/12 06:04:20;;;;;;;1999.90;999.90;;;17.70;99.90;;;;;;5094964;28;20172;-47
2021/03/12 06:06:47;;;;;;;1999.90;999.90;;;17.70;99.90;;;;;;5094957;28;20533;-51
2021/03/12 06:09:14;;;;;;;1999.90;999.90;;;17.80;98.80;;;;;;5095126;28;20174;-46
2021/03/12 06:11:44;;;;;;;1999.90;999.90;;;18.00;98.10;;;;;;5094271;28;20168;-47
2021/03/12 06:14:11;;;;;;;1999.90;999.90;;;18.00;97.90;;;;;;5094509;28;20203;-51
2021/03/12 06:16:38;;;;;;;1999.90;999.90;;;18.10;99.10;;;;;;5094538;28;20168;-46
2021/03/12 06:19:19;;;;;;;1999.90;999.90;;;18.20;99.80;;;;;;5076286;28;20202;-46
2021/03/12 06:21:48;;;;;;;1999.90;999.90;;;18.30;99.50;;;;;;5094399;28;20160;-66
2021/03/12 06:24:31;;;;;;;1999.90;999.90;;;18.30;99.00;;;;;;5094147;28;20224;-63
2021/03/12 06:26:59;;;;;;;1999.90;999.90;;;18.30;99.20;;;;;;5094180;28;20613;-62
2021/03/12 06:29:39;;;;;;;1999.90;999.90;;;18.40;98.90;;;;;;5094345;28;20182;-46
2021/03/12 06:32:07;;;;;;;1999.90;999.90;;;18.50;99.70;;;;;;5076038;28;20160;-61
2021/03/12 06:34:34;;;;;;;1999.90;999.90;;;18.60;99.90;;;;;;5075750;28;20210;-44
2021/03/12 06:37:26;;;;;;;1999.90;999.90;;;18.70;98.70;;;;;;5093176;28;20539;-47
2021/03/12 06:39:53;;;;;;;1999.90;999.90;;;18.70;96.30;;;;;;5093258;28;20168;-49
2021/03/12 06:42:19;;;;;;;1999.90;999.90;;;18.80;96.80;;;;;;5094090;28;20571;-52
2021/03/12 06:44:46;;;;;;;1999.90;999.90;;;18.80;95.80;;;;;;5094134;28;20541;-51
2021/03/12 06:47:13;;;;;;;1999.90;999.90;;;18.80;96.00;;;;;;5093665;28;20170;-46
2021/03/12 06:49:56;;;;;;;1999.90;999.90;;;19.00;97.10;;;;;;5093952;28;20225;-47
2021/03/12 06:52:37;;;;;;;1999.90;999.90;;;19.10;96.60;;;;;;5093529;28;20168;-48
2021/03/12 06:55:06;;;;;;;1999.90;999.90;;;19.20;95.90;;;;;;5093492;28;20719;-48
2021/03/12 06:57:33;;;;;;;1999.90;999.90;;;19.20;95.60;;;;;;5093887;28;20164;-50
2021/03/12 07:00:03;;;;;;;1999.90;999.90;;;19.20;94.20;;;;;;5093490;28;20214;-55
2021/03/12 07:02:35;;;;;;;1999.90;999.90;;;19.30;95.40;;;;;;5093505;28;20636;-46
2021/03/12 07:05:03;;;;;;;1999.90;999.90;;;19.60;96.20;;;;;;5093721;28;20704;-55
2021/03/12 07:07:41;;;;;;;1999.90;999.90;;;19.80;95.30;;;;;;5093286;28;20167;-50
2021/03/12 07:10:10;;;;;;;1999.90;999.90;;;20.10;94.80;;;;;;5093439;28;20176;-48
2021/03/12 07:12:50;;;;;;;1999.90;999.90;;;20.30;93.80;;;;;;5093560;28;20195;-46
2021/03/12 07:15:18;;;;;;;1999.90;999.90;;;20.40;93.60;;;;;;5093087;28;20304;-53
2021/03/12 07:17:45;;;;;;;1999.90;999.90;;;20.70;93.00;;;;;;5093366;28;20167;-52
2021/03/12 07:20:15;;;;;;;1999.90;999.90;;;20.80;92.80;;;;;;5093388;28;20164;-45
2021/03/12 07:22:47;;;;;;;1999.90;999.90;;;20.60;91.70;;;;;;5093076;28;20179;-45
2021/03/12 07:25:15;;;;;;;1999.90;999.90;;;20.50;92.00;;;;;;5092651;28;20630;-45
2021/03/12 07:27:47;;;;;;;1999.90;999.90;;;20.40;92.70;;;;;;5093078;28;20175;-53
2021/03/12 07:30:15;;;;;;;1999.90;999.90;;;20.50;93.50;;;;;;5093287;28;20156;-48
2021/03/12 07:32:45;;;;;;;1999.90;999.90;;;20.40;92.70;;;;;;5093505;28;20179;-48
2021/03/12 07:35:14;;;;;;;1999.90;999.90;;;20.40;92.70;;;;;;5092771;28;20237;-44
2021/03/12 07:37:43;;;;;;;1999.90;999.90;;;20.50;93.00;;;;;;5093152;28;20748;-45
2021/03/12 07:40:12;;;;;;;1999.90;999.90;;;20.70;93.10;;;;;;5092598;28;20190;-44
2021/03/12 07:42:42;;;;;;;1999.90;999.90;;;20.90;91.70;;;;;;5092961;28;20172;-56
2021/03/12 07:45:11;;;;;;;1999.90;999.90;;;21.10;91.20;;;;;;5093099;28;20160;-52
2021/03/12 07:47:38;;;;;;;1999.90;999.90;;;21.30;90.20;;;;;;5093052;28;20168;-51
2021/03/12 07:50:25;;;;;;;1999.90;999.90;;;21.50;90.30;;;;;;5092565;28;20171;-52
2021/03/12 07:52:53;;;;;;;1999.90;999.90;;;21.60;86.80;;;;;;5092874;28;20237;-51
2021/03/12 07:55:45;;;;;;;1999.90;999.90;;;21.80;84.60;;;;;;5092280;28;20218;-47
2021/03/12 07:58:51;;;;;;;1999.90;999.90;;;21.80;84.00;;;;;;5092680;28;20715;-46
2021/03/12 08:01:22;;;;;;;1999.90;999.90;;;22.40;83.00;;;;;;5092333;28;20179;-45
2021/03/12 08:03:50;;;;;;;1999.90;999.90;;;23.00;76.70;;;;;;5092328;28;20163;-55
2021/03/12 08:06:16;;;;;;;1999.90;999.90;;;23.30;74.90;;;;;;5092366;28;20183;-44
2021/03/12 08:08:44;;;;;;;1999.90;999.90;;;23.60;74.30;;;;;;5092592;28;20167;-52
2021/03/12 08:11:17;;;;;;;1999.90;999.90;;;23.90;74.20;;;;;;5092543;28;20187;-52
2021/03/12 08:13:44;;;;;;;1999.90;999.90;;;24.30;71.10;;;;;;5092529;28;20250;-53
2021/03/12 08:16:11;;;;;;;1999.90;999.90;;;24.70;71.10;;;;;;5092399;28;20198;-54
2021/03/12 08:18:38;;;;;;;1999.90;999.90;;;24.90;69.90;;;;;;5092379;28;20171;-51
2021/03/12 08:21:31;;;;;;;1999.90;999.90;;;24.70;68.10;;;;;;5092211;28;20259;-57
2021/03/12 08:24:02;;;;;;;1999.90;999.90;;;24.20;69.90;;;;;;5081521;28;20183;-47
2021/03/12 08:26:51;;;;;;;1999.90;999.90;;;24.40;68.90;;;;;;5092459;28;20213;-47
2021/03/12 08:29:35;;;;;;;1999.90;999.90;;;24.40;67.10;;;;;;5092322;28;20532;-58
2021/03/12 08:32:23;;;;;;;1999.90;999.90;;;24.80;66.70;;;;;;5092295;28;20175;-47
2021/03/12 08:34:50;;;;;;;1999.90;999.90;;;24.70;62.50;;;;;;5092190;28;20280;-47
2021/03/12 08:37:26;;;;;;;1999.90;999.90;;;24.70;64.00;;;;;;5092244;28;20172;-49
2021/03/12 08:40:14;;;;;;;1999.90;999.90;;;24.30;64.30;;;;;;5092328;28;20175;-59
2021/03/12 08:42:56;;;;;;;1999.90;999.90;;;24.50;64.30;;;;;;5092257;28;20213;-54
2021/03/12 08:45:35;;;;;;;1999.90;999.90;;;24.60;64.30;;;;;;5090333;28;20172;-49
2021/03/12 08:48:12;;;;;;;1999.90;999.90;;;25.70;63.00;;;;;;5090727;28;20308;-48
2021/03/12 08:51:03;;;;;;;1999.90;999.90;;;26.40;59.00;;;;;;5090993;28;20154;-47
2021/03/12 08:53:34;;;;;;;1999.90;999.90;;;26.30;58.60;;;;;;5090553;28;20168;-51
2021/03/12 08:56:02;;;;;;;1999.90;999.90;;;25.70;59.30;;;;;;5090486;28;20249;-60
2021/03/12 08:58:31;;;;;;;1999.90;999.90;;;25.80;59.70;;;;;;5072328;28;20190;-58
2021/03/12 09:01:07;;;;;;;1999.90;999.90;;;26.00;59.40;;;;;;5093443;28;20198;-56
2021/03/12 09:03:34;;;;;;;1999.90;999.90;;;25.80;59.50;;;;;;5095787;28;20160;-51
2021/03/12 09:06:09;;;;;;;1999.90;999.90;;;25.90;59.90;;;;;;5095626;28;20176;-48
2021/03/12 09:08:38;;;;;;;1999.90;999.90;;;26.10;57.40;;;;;;5095815;28;20159;-58
2021/03/12 09:11:07;;;;;;;1999.90;999.90;;;25.70;57.40;;;;;;5095052;28;20227;-57
2021/03/12 09:13:37;;;;;;;1999.90;999.90;;;24.90;59.70;;;;;;5095471;28;20222;-43
2021/03/12 09:16:06;;;;;;;1999.90;999.90;;;25.00;60.10;;;;;;5095339;28;20171;-43
2021/03/12 09:18:34;;;;;;;1999.90;999.90;;;25.00;60.50;;;;;;5095412;28;20160;-44
2021/03/12 09:21:09;;;;;;;1999.90;999.90;;;25.50;61.60;;;;;;5095726;28;20668;-52
2021/03/12 09:24:12;;;;;;;1999.90;999.90;;;25.90;58.30;;;;;;5077341;28;20250;-48
2021/03/12 09:26:41;;;;;;;1999.90;999.90;;;25.80;57.70;;;;;;5090880;28;20274;-58
2021/03/12 09:29:08;;;;;;;1999.90;999.90;;;25.40;59.60;;;;;;5077433;28;20259;-59
2021/03/12 09:31:37;;;;;;;1999.90;999.90;;;25.50;58.80;;;;;;5095006;28;20577;-50
2021/03/12 09:34:05;;;;;;;1999.90;999.90;;;25.70;59.10;;;;;;5095120;28;20305;-44
2021/03/12 09:36:38;;;;;;;1999.90;999.90;;;25.50;58.80;;;;;;5077116;28;20207;-50
2021/03/12 09:39:21;;;;;;;1999.90;999.90;;;26.30;58.80;;;;;;5094894;28;20206;-52
2021/03/12 09:41:58;;;;;;;1999.90;999.90;;;26.40;56.90;;;;;;5094323;28;20170;-51
2021/03/12 09:44:27;;;;;;;1999.90;999.90;;;26.10;57.30;;;;;;5094136;28;20195;-48
2021/03/12 09:46:56;;;;;;;1999.90;999.90;;;25.90;58.10;;;;;;5094011;28;20168;-55
2021/03/12 09:49:43;;;;;;;1999.90;999.90;;;25.90;58.00;;;;;;5094205;28;20242;-42
2021/03/12 09:52:18;;;;;;;1999.90;999.90;;;26.20;57.70;;;;;;5093838;28;20152;-53
2021/03/12 09:54:46;;;;;;;1999.90;999.90;;;26.20;57.40;;;;;;5094351;28;20197;-48
2021/03/12 09:57:18;;;;;;;1999.90;999.90;;;26.40;56.90;;;;;;5094743;28;20167;-45
2021/03/12 09:59:51;;;;;;;1999.90;999.90;;;26.20;57.40;;;;;;5094783;28;20194;-52
2021/03/12 10:02:19;;;;;;;1999.90;999.90;;;26.20;58.20;;;;;;5094961;28;20217;-45
2021/03/12 10:04:55;;;;;;;1999.90;999.90;;;26.20;57.70;;;;;;5094634;28;20199;-47
2021/03/12 10:07:22;;;;;;;1999.90;999.90;;;26.10;58.40;;;;;;5094409;28;20187;-57
2021/03/12 10:09:50;;;;;;;1999.90;999.90;;;26.00;57.90;;;;;;5094295;28;20191;-43
2021/03/12 10:12:25;;;;;;;1999.90;999.90;;;25.90;58.60;;;;;;5093744;28;20180;-44
2021/03/12 10:15:08;;;;;;;1999.90;999.90;;;26.00;58.40;;;;;;5094689;28;20191;-40
2021/03/12 10:17:40;;;;;;;1999.90;999.90;;;26.40;58.30;;;;;;5094399;28;20494;-41
2021/03/12 10:20:29;;;;;;;1999.90;999.90;;;26.70;58.80;;;;;;5094553;28;20178;-47
2021/03/12 10:23:02;;;;;;;1999.90;999.90;;;26.60;56.20;;;;;;5094622;28;20175;-45
2021/03/12 10:25:37;;;;;;;1999.90;999.90;;;26.70;57.10;;;;;;5094237;28;20220;-64
2021/03/12 10:28:08;;;;;;;1999.90;999.90;;;26.70;56.30;;;;;;5094285;28;20649;-45
2021/03/12 10:30:37;;;;;;;1999.90;999.90;;;26.60;56.50;;;;;;5094504;28;20624;-46
2021/03/12 10:33:06;;;;;;;1999.90;999.90;;;26.80;57.10;;;;;;5094053;28;20164;-48
2021/03/12 10:35:43;;;;;;;1999.90;999.90;;;27.50;57.20;;;;;;5094194;28;20206;-49
2021/03/12 10:38:16;;;;;;;1999.90;999.90;;;27.30;56.00;;;;;;5094123;28;20633;-48
2021/03/12 10:40:45;;;;;;;1999.90;999.90;;;27.40;56.20;;;;;;5093975;28;20168;-54
2021/03/12 10:43:13;;;;;;;1999.90;999.90;;;27.00;56.00;;;;;;5094174;28;20176;-44
2021/03/12 10:45:51;;;;;;;1999.90;999.90;;;26.90;55.90;;;;;;5094352;28;20164;-45
2021/03/12 10:48:22;;;;;;;1999.90;999.90;;;27.40;54.30;;;;;;5093852;28;20486;-47
2021/03/12 10:51:03;;;;;;;1999.90;999.90;;;27.70;54.40;;;;;;5094027;28;20186;-45
2021/03/12 10:53:31;;;;;;;1999.90;999.90;;;28.70;55.10;;;;;;5093853;28;20172;-47
2021/03/12 10:56:03;;;;;;;1999.90;999.90;;;28.80;52.90;;;;;;5093700;28;20649;-51
2021/03/12 10:58:30;;;;;;;1999.90;999.90;;;28.90;52.30;;;;;;5093686;28;20633;-54
2021/03/12 11:01:18;;;;;;;1999.90;999.90;;;29.10;51.30;;;;;;5093838;28;20190;-44
2021/03/12 11:03:46;;;;;;;1999.90;999.90;;;29.10;50.60;;;;;;5093403;28;20255;-47
2021/03/12 11:06:15;;;;;;;1999.90;999.90;;;29.00;50.50;;;;;;5093621;28;20209;-45
2021/03/12 11:08:42;;;;;;;1999.90;999.90;;;28.90;49.70;;;;;;5093992;28;20171;-45
2021/03/12 11:11:12;;;;;;;1999.90;999.90;;;29.30;49.70;;;;;;5093231;28;20176;-45
2021/03/12 11:13:40;;;;;;;1999.90;999.90;;;29.30;48.90;;;;;;5093468;28;20164;-48
2021/03/12 11:16:08;;;;;;;1999.90;999.90;;;29.60;47.50;;;;;;5093415;28;20179;-47
2021/03/12 11:18:35;;;;;;;1999.90;999.90;;;30.10;46.70;;;;;;5093690;28;20224;-44
2021/03/12 11:21:05;;;;;;;1999.90;999.90;;;30.50;46.60;;;;;;5093647;28;20186;-49
2021/03/12 11:23:32;;;;;;;1999.90;999.90;;;30.40;46.50;;;;;;5092914;28;20200;-45
2021/03/12 11:26:00;;;;;;;1999.90;999.90;;;30.40;45.40;;;;;;5093227;28;20249;-49
2021/03/12 11:28:27;;;;;;;1999.90;999.90;;;30.40;45.10;;;;;;5093526;28;20163;-50
2021/03/12 11:30:58;;;;;;;1999.90;999.90;;;30.20;45.30;;;;;;5093408;28;20176;-48
2021/03/12 11:33:26;;;;;;;1999.90;999.90;;;30.40;43.90;;;;;;5093480;28;20152;-50
2021/03/12 11:35:54;;;;;;;1999.90;999.90;;;30.70;43.40;;;;;;5093216;28;20199;-44
2021/03/12 11:38:21;;;;;;;1999.90;999.90;;;30.90;42.60;;;;;;5093366;28;20182;-47
2021/03/12 11:40:48;;;;;;;1999.90;999.90;;;31.20;41.30;;;;;;5093310;28;20633;-45
2021/03/12 11:43:16;;;;;;;1999.90;999.90;;;31.50;40.40;;;;;;5093388;28;20167;-53
2021/03/12 11:45:43;;;;;;;1999.90;999.90;;;31.20;40.80;;;;;;5093211;28;20176;-46
2021/03/12 11:48:10;;;;;;;1999.90;999.90;;;31.40;39.50;;;;;;5093139;28;20171;-52
2021/03/12 11:50:39;;;;;;;1999.90;999.90;;;31.20;39.60;;;;;;5093247;28;20214;-44
2021/03/12 11:53:06;;;;;;;1999.90;999.90;;;31.20;40.40;;;;;;5093042;28;20168;-50
2021/03/12 11:55:34;;;;;;;1999.90;999.90;;;30.60;39.90;;;;;;5092736;28;20561;-51
2021/03/12 11:58:01;;;;;;;1999.90;999.90;;;31.00;38.80;;;;;;5092684;28;20168;-50
2021/03/12 12:00:29;;;;;;;1999.90;999.90;;;30.40;39.20;;;;;;5093046;28;20172;-47
2021/03/12 12:02:57;;;;;;;1999.90;999.90;;;30.80;39.30;;;;;;5092931;28;20203;-45
2021/03/12 12:05:24;;;;;;;1999.90;999.90;;;31.00;40.00;;;;;;5092515;28;20176;-47
2021/03/12 12:07:51;;;;;;;1999.90;999.90;;;31.00;38.90;;;;;;5092843;28;20172;-45
2021/03/12 12:10:18;;;;;;;1999.90;999.90;;;31.60;38.30;;;;;;5092487;28;20605;-57
2021/03/12 12:12:47;;;;;;;1999.90;999.90;;;31.80;35.30;;;;;;5092004;28;20176;-56
2021/03/12 12:15:17;;;;;;;1999.90;999.90;;;32.30;34.40;;;;;;5092269;28;20202;-62
2021/03/12 12:17:46;;;;;;;1999.90;999.90;;;31.60;35.00;;;;;;5089940;28;20253;-51
2021/03/12 12:20:15;;;;;;;1999.90;999.90;;;30.70;35.40;;;;;;5092339;28;20171;-44
2021/03/12 12:22:45;;;;;;;1999.90;999.90;;;30.90;38.30;;;;;;5092243;28;20294;-51
2021/03/12 12:25:13;;;;;;;1999.90;999.90;;;31.40;34.70;;;;;;5091577;28;20215;-49
2021/03/12 12:27:40;;;;;;;1999.90;999.90;;;31.90;35.40;;;;;;5092559;28;20249;-43
2021/03/12 12:30:07;;;;;;;1999.90;999.90;;;32.10;34.80;;;;;;5092635;28;20175;-46
2021/03/12 12:32:36;;;;;;;1999.90;999.90;;;32.30;34.20;;;;;;5092440;28;20170;-48
2021/03/12 12:35:05;;;;;;;1999.90;999.90;;;32.30;33.30;;;;;;5092524;28;20269;-57
2021/03/12 12:37:33;;;;;;;1999.90;999.90;;;32.20;34.00;;;;;;5096689;28;20195;-55